sensor_id;sensor_type;location;lat;lon;timestamp;temperature;humidity
16064;DHT22;8136;53.172;8.256;2023-03-19T00:00:53;11.00;99.90
16064;DHT22;8136;53.172;8.256;2023-03-19T00:03:20;11.00;99.90
16064;DHT22;8136;53.172;8.256;2023-03-19T00:05:51;10.90;99.90
16064;DHT22;8136;53.172;8.256;2023-03-19T00:08:18;10.90;99.90
16064;DHT22;8136;53.172;8.256;2023-03-19T00:10:46;10.90;99.90
16064;DHT22;8136;53.172;8.256;2023-03-19T00:13:13;10.80;99.90
16064;DHT22;8136;53.172;8.256;2023-03-19T00:15:40;10.80;99.90
16064;DHT22;8136;53.172;8.256;2023-03-19T00:18:07;10.80;99.90
16064;DHT22;8136;53.172;8.256;2023-03-19T00:20:34;10.80;99.90
16064;DHT22;8136;53.172;8.256;2023-03-19T00:23:01;10.80;99.90
16064;DHT22;8136;53.172;8.256;2023-03-19T00:25:28;10.80;99.90
16064;DHT22;8136;53.172;8.256;2023-03-19T00:27:56;10.80;99.90
16064;DHT22;8136;53.172;8.256;2023-03-19T00:30:24;10.90;99.90
16064;DHT22;8136;53.172;8.256;2023-03-19T00:32:51;10.90;99.90
16064;DHT22;8136;53.172;8.256;2023-03-19T00:35:18;10.90;99.90
16064;DHT22;8136;53.172;8.256;2023-03-19T00:37:45;10.90;99.90
16064;DHT22;8136;53.172;8.256;2023-03-19T00:40:12;10.90;99.90
16064;DHT22;8136;53.172;8.256;2023-03-19T00:42:38;10.90;99.90
16064;DHT22;8136;53.172;8.256;2023-03-19T00:45:09;10.90;99.90
16064;DHT22;8136;53.172;8.256;2023-03-19T00:47:36;10.80;99.90
16064;DHT22;8136;53.172;8.256;2023-03-19T00:50:03;10.80;99.90
16064;DHT22;8136;53.172;8.256;2023-03-19T00:52:31;10.80;99.90
16064;DHT22;8136;53.172;8.256;2023-03-19T00:54:58;10.80;99.90
16064;DHT22;8136;53.172;8.256;2023-03-19T00:57:24;10.80;99.90
16064;DHT22;8136;53.172;8.256;2023-03-19T00:59:51;10.80;99.90
16064;DHT22;8136;53.172;8.256;2023-03-19T01:02:19;10.80;99.90
16064;DHT22;8136;53.172;8.256;2023-03-19T01:04:47;10.70;99.90
16064;DHT22;8136;53.172;8.256;2023-03-19T01:07:14;10.80;99.90
16064;DHT22;8136;53.172;8.256;2023-03-19T01:09:41;10.80;99.90
16064;DHT22;8136;53.172;8.256;2023-03-19T01:12:08;10.80;99.90
16064;DHT22;8136;53.172;8.256;2023-03-19T01:14:35;10.80;99.90
16064;DHT22;8136;53.172;8.256;2023-03-19T01:17:02;10.80;99.90
16064;DHT22;8136;53.172;8.256;2023-03-19T01:19:30;10.70;99.90
16064;DHT22;8136;53.172;8.256;2023-03-19T01:21:57;10.80;99.90
16064;DHT22;8136;53.172;8.256;2023-03-19T01:24:27;10.80;99.90
16064;DHT22;8136;53.172;8.256;2023-03-19T01:26:54;10.80;99.90
16064;DHT22;8136;53.172;8.256;2023-03-19T01:29:21;10.80;99.90
16064;DHT22;8136;53.172;8.256;2023-03-19T01:31:47;10.70;99.90
16064;DHT22;8136;53.172;8.256;2023-03-19T01:34:15;10.70;99.90
16064;DHT22;8136;53.172;8.256;2023-03-19T01:36:43;10.70;99.90
16064;DHT22;8136;53.172;8.256;2023-03-19T01:39:11;10.80;99.90
16064;DHT22;8136;53.172;8.256;2023-03-19T01:41:38;10.80;99.90
16064;DHT22;8136;53.172;8.256;2023-03-19T01:44:26;10.80;99.90
16064;DHT22;8136;53.172;8.256;2023-03-19T01:46:53;10.90;99.90
16064;DHT22;8136;53.172;8.256;2023-03-19T01:49:22;10.80;99.90
16064;DHT22;8136;53.172;8.256;2023-03-19T01:51:52;10.90;99.90
16064;DHT22;8136;53.172;8.256;2023-03-19T01:54:22;10.80;99.90
16064;DHT22;8136;53.172;8.256;2023-03-19T01:56:52;10.80;99.90
16064;DHT22;8136;53.172;8.256;2023-03-19T01:59:24;10.80;99.90
16064;DHT22;8136;53.172;8.256;2023-03-19T02:01:56;10.80;99.90
16064;DHT22;8136;53.172;8.256;2023-03-19T02:04:24;10.80;99.90
16064;DHT22;8136;53.172;8.256;2023-03-19T02:06:54;10.80;99.90
16064;DHT22;8136;53.172;8.256;2023-03-19T02:09:21;10.80;99.90
16064;DHT22;8136;53.172;8.256;2023-03-19T02:11:49;10.80;99.90
16064;DHT22;8136;53.172;8.256;2023-03-19T02:14:16;10.80;99.90
16064;DHT22;8136;53.172;8.256;2023-03-19T02:16:43;10.90;99.90
16064;DHT22;8136;53.172;8.256;2023-03-19T02:19:14;10.90;99.90
16064;DHT22;8136;53.172;8.256;2023-03-19T02:21:42;10.80;99.90
16064;DHT22;8136;53.172;8.256;2023-03-19T02:24:13;10.90;99.90
16064;DHT22;8136;53.172;8.256;2023-03-19T02:26:43;10.90;99.90
16064;DHT22;8136;53.172;8.256;2023-03-19T02:29:11;10.90;99.90
16064;DHT22;8136;53.172;8.256;2023-03-19T02:31:38;10.90;99.90
16064;DHT22;8136;53.172;8.256;2023-03-19T02:34:06;10.90;99.90
16064;DHT22;8136;53.172;8.256;2023-03-19T02:36:54;10.90;99.90
16064;DHT22;8136;53.172;8.256;2023-03-19T02:39:26;10.90;99.90
16064;DHT22;8136;53.172;8.256;2023-03-19T02:41:56;10.90;99.90
16064;DHT22;8136;53.172;8.256;2023-03-19T02:44:23;10.80;99.90
16064;DHT22;8136;53.172;8.256;2023-03-19T02:46:50;10.90;99.90
16064;DHT22;8136;53.172;8.256;2023-03-19T02:49:17;10.80;99.90
16064;DHT22;8136;53.172;8.256;2023-03-19T02:51:44;10.80;99.90
16064;DHT22;8136;53.172;8.256;2023-03-19T02:54:11;10.80;99.90
16064;DHT22;8136;53.172;8.256;2023-03-19T02:56:38;10.80;99.90
16064;DHT22;8136;53.172;8.256;2023-03-19T02:59:06;10.80;99.90
16064;DHT22;8136;53.172;8.256;2023-03-19T03:01:33;10.80;99.90
16064;DHT22;8136;53.172;8.256;2023-03-19T03:04:01;10.80;99.90
16064;DHT22;8136;53.172;8.256;2023-03-19T03:06:28;10.80;99.90
16064;DHT22;8136;53.172;8.256;2023-03-19T03:08:54;10.70;99.90
16064;DHT22;8136;53.172;8.256;2023-03-19T03:11:21;10.70;99.90
16064;DHT22;8136;53.172;8.256;2023-03-19T03:13:48;10.80;99.90
16064;DHT22;8136;53.172;8.256;2023-03-19T03:16:16;10.80;99.90
16064;DHT22;8136;53.172;8.256;2023-03-19T03:18:43;10.80;99.90
16064;DHT22;8136;53.172;8.256;2023-03-19T03:21:10;10.70;99.90
16064;DHT22;8136;53.172;8.256;2023-03-19T03:23:36;10.70;99.90
16064;DHT22;8136;53.172;8.256;2023-03-19T03:26:03;10.70;99.90
16064;DHT22;8136;53.172;8.256;2023-03-19T03:28:31;10.70;99.90
16064;DHT22;8136;53.172;8.256;2023-03-19T03:30:58;10.70;99.90
16064;DHT22;8136;53.172;8.256;2023-03-19T03:33:26;10.70;99.90
16064;DHT22;8136;53.172;8.256;2023-03-19T03:35:53;10.70;99.90
16064;DHT22;8136;53.172;8.256;2023-03-19T03:38:20;10.70;99.90
16064;DHT22;8136;53.172;8.256;2023-03-19T03:40:49;10.70;99.90
16064;DHT22;8136;53.172;8.256;2023-03-19T03:43:15;10.70;99.90
16064;DHT22;8136;53.172;8.256;2023-03-19T03:45:43;10.70;99.90
16064;DHT22;8136;53.172;8.256;2023-03-19T03:48:09;10.70;99.90
16064;DHT22;8136;53.172;8.256;2023-03-19T03:50:38;10.70;99.90
16064;DHT22;8136;53.172;8.256;2023-03-19T03:53:05;10.70;99.90
16064;DHT22;8136;53.172;8.256;2023-03-19T03:55:32;10.70;99.90
16064;DHT22;8136;53.172;8.256;2023-03-19T03:57:58;10.70;99.90
16064;DHT22;8136;53.172;8.256;2023-03-19T04:00:25;10.70;99.90
16064;DHT22;8136;53.172;8.256;2023-03-19T04:02:52;10.70;99.90
16064;DHT22;8136;53.172;8.256;2023-03-19T04:05:20;10.70;99.90
16064;DHT22;8136;53.172;8.256;2023-03-19T04:07:48;10.70;99.90
16064;DHT22;8136;53.172;8.256;2023-03-19T04:10:16;10.70;99.90
16064;DHT22;8136;53.172;8.256;2023-03-19T04:12:43;10.70;99.90
16064;DHT22;8136;53.172;8.256;2023-03-19T04:15:11;10.70;99.90
16064;DHT22;8136;53.172;8.256;2023-03-19T04:17:38;10.70;99.90
16064;DHT22;8136;53.172;8.256;2023-03-19T04:20:07;10.70;99.90
16064;DHT22;8136;53.172;8.256;2023-03-19T04:22:35;10.70;99.90
16064;DHT22;8136;53.172;8.256;2023-03-19T04:25:04;10.70;99.90
16064;DHT22;8136;53.172;8.256;2023-03-19T04:27:32;10.70;99.90
16064;DHT22;8136;53.172;8.256;2023-03-19T04:29:59;10.70;99.90
16064;DHT22;8136;53.172;8.256;2023-03-19T04:32:26;10.60;99.90
16064;DHT22;8136;53.172;8.256;2023-03-19T04:34:52;10.60;99.90
16064;DHT22;8136;53.172;8.256;2023-03-19T04:37:19;10.60;99.90
16064;DHT22;8136;53.172;8.256;2023-03-19T04:39:46;10.60;99.90
16064;DHT22;8136;53.172;8.256;2023-03-19T04:42:14;10.60;99.90
16064;DHT22;8136;53.172;8.256;2023-03-19T04:44:41;10.60;99.90
16064;DHT22;8136;53.172;8.256;2023-03-19T04:47:08;10.60;99.90
16064;DHT22;8136;53.172;8.256;2023-03-19T04:49:35;10.60;99.90
16064;DHT22;8136;53.172;8.256;2023-03-19T04:52:03;10.60;99.90
16064;DHT22;8136;53.172;8.256;2023-03-19T04:54:30;10.70;99.90
16064;DHT22;8136;53.172;8.256;2023-03-19T04:56:57;10.60;99.90
16064;DHT22;8136;53.172;8.256;2023-03-19T04:59:25;10.60;99.90
16064;DHT22;8136;53.172;8.256;2023-03-19T05:01:52;10.60;99.90
16064;DHT22;8136;53.172;8.256;2023-03-19T05:04:19;10.60;99.90
16064;DHT22;8136;53.172;8.256;2023-03-19T05:06:46;10.60;99.90
16064;DHT22;8136;53.172;8.256;2023-03-19T05:09:12;10.60;99.90
16064;DHT22;8136;53.172;8.256;2023-03-19T05:11:39;10.60;99.90
16064;DHT22;8136;53.172;8.256;2023-03-19T05:14:06;10.60;99.90
16064;DHT22;8136;53.172;8.256;2023-03-19T05:16:34;10.60;99.90
16064;DHT22;8136;53.172;8.256;2023-03-19T05:19:01;10.60;99.90
16064;DHT22;8136;53.172;8.256;2023-03-19T05:21:28;10.60;99.90
16064;DHT22;8136;53.172;8.256;2023-03-19T05:23:55;10.60;99.90
16064;DHT22;8136;53.172;8.256;2023-03-19T05:26:22;10.60;99.90
16064;DHT22;8136;53.172;8.256;2023-03-19T05:28:48;10.60;99.90
16064;DHT22;8136;53.172;8.256;2023-03-19T05:31:15;10.50;99.90
16064;DHT22;8136;53.172;8.256;2023-03-19T05:33:43;10.50;99.90
16064;DHT22;8136;53.172;8.256;2023-03-19T05:36:10;10.50;99.90
16064;DHT22;8136;53.172;8.256;2023-03-19T05:38:38;10.50;99.90
16064;DHT22;8136;53.172;8.256;2023-03-19T05:41:05;10.50;99.90
16064;DHT22;8136;53.172;8.256;2023-03-19T05:43:33;10.60;99.90
16064;DHT22;8136;53.172;8.256;2023-03-19T05:45:59;10.60;99.90
16064;DHT22;8136;53.172;8.256;2023-03-19T05:48:26;10.50;99.90
16064;DHT22;8136;53.172;8.256;2023-03-19T05:50:54;10.50;99.90
16064;DHT22;8136;53.172;8.256;2023-03-19T05:53:21;10.50;99.90
16064;DHT22;8136;53.172;8.256;2023-03-19T05:55:48;10.50;99.90
16064;DHT22;8136;53.172;8.256;2023-03-19T05:58:15;10.50;99.90
16064;DHT22;8136;53.172;8.256;2023-03-19T06:00:42;10.50;99.90
16064;DHT22;8136;53.172;8.256;2023-03-19T06:03:09;10.60;99.90
16064;DHT22;8136;53.172;8.256;2023-03-19T06:05:35;10.60;99.90
16064;DHT22;8136;53.172;8.256;2023-03-19T06:08:04;10.60;99.90
16064;DHT22;8136;53.172;8.256;2023-03-19T06:10:32;10.50;99.90
16064;DHT22;8136;53.172;8.256;2023-03-19T06:12:59;10.60;99.90
16064;DHT22;8136;53.172;8.256;2023-03-19T06:15:26;10.50;99.90
16064;DHT22;8136;53.172;8.256;2023-03-19T06:17:52;10.60;99.90
16064;DHT22;8136;53.172;8.256;2023-03-19T06:20:19;10.60;99.90
16064;DHT22;8136;53.172;8.256;2023-03-19T06:22:46;10.70;99.90
16064;DHT22;8136;53.172;8.256;2023-03-19T06:25:14;10.70;99.90
16064;DHT22;8136;53.172;8.256;2023-03-19T06:27:41;10.60;99.90
16064;DHT22;8136;53.172;8.256;2023-03-19T06:30:09;10.70;99.90
16064;DHT22;8136;53.172;8.256;2023-03-19T06:32:36;10.70;99.90
16064;DHT22;8136;53.172;8.256;2023-03-19T06:35:04;10.70;99.90
16064;DHT22;8136;53.172;8.256;2023-03-19T06:37:31;10.70;99.90
16064;DHT22;8136;53.172;8.256;2023-03-19T06:39:58;10.70;99.90
16064;DHT22;8136;53.172;8.256;2023-03-19T06:42:26;10.70;99.90
16064;DHT22;8136;53.172;8.256;2023-03-19T06:44:52;10.70;99.90
16064;DHT22;8136;53.172;8.256;2023-03-19T06:47:19;10.70;99.90
16064;DHT22;8136;53.172;8.256;2023-03-19T06:49:46;10.70;99.90
16064;DHT22;8136;53.172;8.256;2023-03-19T06:52:13;10.70;99.90
16064;DHT22;8136;53.172;8.256;2023-03-19T06:54:40;10.80;99.90
16064;DHT22;8136;53.172;8.256;2023-03-19T06:57:06;10.80;99.90
16064;DHT22;8136;53.172;8.256;2023-03-19T06:59:34;10.80;99.90
16064;DHT22;8136;53.172;8.256;2023-03-19T07:02:02;10.80;99.90
16064;DHT22;8136;53.172;8.256;2023-03-19T07:04:29;10.80;99.90
16064;DHT22;8136;53.172;8.256;2023-03-19T07:06:56;10.80;99.90
16064;DHT22;8136;53.172;8.256;2023-03-19T07:09:22;10.90;99.90
16064;DHT22;8136;53.172;8.256;2023-03-19T07:11:49;10.90;99.90
16064;DHT22;8136;53.172;8.256;2023-03-19T07:14:16;10.90;99.90
16064;DHT22;8136;53.172;8.256;2023-03-19T07:16:44;10.90;99.90
16064;DHT22;8136;53.172;8.256;2023-03-19T07:19:11;10.90;99.90
16064;DHT22;8136;53.172;8.256;2023-03-19T07:21:38;11.00;99.90
16064;DHT22;8136;53.172;8.256;2023-03-19T07:24:05;11.00;99.90
16064;DHT22;8136;53.172;8.256;2023-03-19T07:26:32;11.10;99.90
16064;DHT22;8136;53.172;8.256;2023-03-19T07:28:58;11.10;99.90
16064;DHT22;8136;53.172;8.256;2023-03-19T07:31:26;11.10;99.90
16064;DHT22;8136;53.172;8.256;2023-03-19T07:33:54;11.20;99.90
16064;DHT22;8136;53.172;8.256;2023-03-19T07:36:21;11.30;99.90
16064;DHT22;8136;53.172;8.256;2023-03-19T07:38:48;11.30;99.90
16064;DHT22;8136;53.172;8.256;2023-03-19T07:41:16;11.30;99.90
16064;DHT22;8136;53.172;8.256;2023-03-19T07:43:43;11.30;99.90
16064;DHT22;8136;53.172;8.256;2023-03-19T07:46:09;11.40;99.90
16064;DHT22;8136;53.172;8.256;2023-03-19T07:48:36;11.40;99.90
16064;DHT22;8136;53.172;8.256;2023-03-19T07:51:05;11.50;99.90
16064;DHT22;8136;53.172;8.256;2023-03-19T07:53:32;11.50;99.90
16064;DHT22;8136;53.172;8.256;2023-03-19T07:55:58;11.50;99.90
16064;DHT22;8136;53.172;8.256;2023-03-19T07:58:25;11.60;99.90
16064;DHT22;8136;53.172;8.256;2023-03-19T08:00:52;11.60;99.90
16064;DHT22;8136;53.172;8.256;2023-03-19T08:03:19;11.60;99.90
16064;DHT22;8136;53.172;8.256;2023-03-19T08:05:47;11.70;99.90
16064;DHT22;8136;53.172;8.256;2023-03-19T08:08:15;11.80;99.90
16064;DHT22;8136;53.172;8.256;2023-03-19T08:10:42;11.80;99.90
16064;DHT22;8136;53.172;8.256;2023-03-19T08:13:08;11.90;99.90
16064;DHT22;8136;53.172;8.256;2023-03-19T08:15:35;11.90;99.90
16064;DHT22;8136;53.172;8.256;2023-03-19T08:18:03;12.00;99.90
16064;DHT22;8136;53.172;8.256;2023-03-19T08:20:31;12.00;99.90
16064;DHT22;8136;53.172;8.256;2023-03-19T08:22:57;12.00;99.90
16064;DHT22;8136;53.172;8.256;2023-03-19T08:25:25;12.00;99.90
16064;DHT22;8136;53.172;8.256;2023-03-19T08:27:56;12.20;99.90
16064;DHT22;8136;53.172;8.256;2023-03-19T08:30:23;12.20;99.90
16064;DHT22;8136;53.172;8.256;2023-03-19T08:32:51;12.30;99.90
16064;DHT22;8136;53.172;8.256;2023-03-19T08:35:18;12.40;99.90
16064;DHT22;8136;53.172;8.256;2023-03-19T08:37:45;12.50;99.90
16064;DHT22;8136;53.172;8.256;2023-03-19T08:40:12;12.60;99.90
16064;DHT22;8136;53.172;8.256;2023-03-19T08:42:40;12.60;99.90
16064;DHT22;8136;53.172;8.256;2023-03-19T08:45:08;12.60;99.90
16064;DHT22;8136;53.172;8.256;2023-03-19T08:47:35;12.60;99.90
16064;DHT22;8136;53.172;8.256;2023-03-19T08:50:03;12.60;99.90
16064;DHT22;8136;53.172;8.256;2023-03-19T08:52:36;12.60;99.90
16064;DHT22;8136;53.172;8.256;2023-03-19T08:55:04;12.60;99.90
16064;DHT22;8136;53.172;8.256;2023-03-19T08:57:32;12.50;99.90
16064;DHT22;8136;53.172;8.256;2023-03-19T09:00:00;12.60;99.90
16064;DHT22;8136;53.172;8.256;2023-03-19T09:02:28;12.60;99.90
16064;DHT22;8136;53.172;8.256;2023-03-19T09:04:55;12.60;99.90
16064;DHT22;8136;53.172;8.256;2023-03-19T09:07:22;12.60;99.90
16064;DHT22;8136;53.172;8.256;2023-03-19T09:09:49;12.50;99.90
16064;DHT22;8136;53.172;8.256;2023-03-19T09:12:16;12.60;99.90
16064;DHT22;8136;53.172;8.256;2023-03-19T09:14:43;12.60;99.90
16064;DHT22;8136;53.172;8.256;2023-03-19T09:17:11;12.70;99.90
16064;DHT22;8136;53.172;8.256;2023-03-19T09:19:39;12.70;99.90
16064;DHT22;8136;53.172;8.256;2023-03-19T09:22:07;12.70;99.90
16064;DHT22;8136;53.172;8.256;2023-03-19T09:24:33;12.70;99.90
16064;DHT22;8136;53.172;8.256;2023-03-19T09:27:00;12.70;99.90
16064;DHT22;8136;53.172;8.256;2023-03-19T09:29:28;12.70;99.90
16064;DHT22;8136;53.172;8.256;2023-03-19T09:31:55;12.80;99.90
16064;DHT22;8136;53.172;8.256;2023-03-19T09:34:23;12.80;99.90
16064;DHT22;8136;53.172;8.256;2023-03-19T09:36:50;12.90;99.90
16064;DHT22;8136;53.172;8.256;2023-03-19T09:39:16;13.00;99.90
16064;DHT22;8136;53.172;8.256;2023-03-19T09:41:53;13.10;99.90
16064;DHT22;8136;53.172;8.256;2023-03-19T09:44:28;13.10;99.90
16064;DHT22;8136;53.172;8.256;2023-03-19T09:46:58;13.20;99.90
16064;DHT22;8136;53.172;8.256;2023-03-19T09:49:32;13.20;99.90
16064;DHT22;8136;53.172;8.256;2023-03-19T09:52:11;13.30;99.90
16064;DHT22;8136;53.172;8.256;2023-03-19T09:54:43;13.10;99.90
16064;DHT22;8136;53.172;8.256;2023-03-19T09:57:13;13.10;99.90
16064;DHT22;8136;53.172;8.256;2023-03-19T09:59:42;13.10;99.90
16064;DHT22;8136;53.172;8.256;2023-03-19T10:02:28;13.00;99.90
16064;DHT22;8136;53.172;8.256;2023-03-19T10:05:06;13.00;99.90
16064;DHT22;8136;53.172;8.256;2023-03-19T10:07:49;13.10;99.90
16064;DHT22;8136;53.172;8.256;2023-03-19T10:10:43;13.10;99.90
16064;DHT22;8136;53.172;8.256;2023-03-19T10:13:17;13.10;99.90
16064;DHT22;8136;53.172;8.256;2023-03-19T10:15:49;13.10;99.90
16064;DHT22;8136;53.172;8.256;2023-03-19T10:18:19;13.20;99.90
16064;DHT22;8136;53.172;8.256;2023-03-19T10:20:52;13.10;99.90
16064;DHT22;8136;53.172;8.256;2023-03-19T10:23:31;13.20;99.90
16064;DHT22;8136;53.172;8.256;2023-03-19T10:26:02;13.20;99.90
16064;DHT22;8136;53.172;8.256;2023-03-19T10:28:30;13.30;99.90
16064;DHT22;8136;53.172;8.256;2023-03-19T10:31:08;13.30;99.90
16064;DHT22;8136;53.172;8.256;2023-03-19T10:33:42;13.20;99.90
16064;DHT22;8136;53.172;8.256;2023-03-19T10:36:12;13.30;99.90
16064;DHT22;8136;53.172;8.256;2023-03-19T10:38:40;13.30;99.90
16064;DHT22;8136;53.172;8.256;2023-03-19T10:41:18;13.30;99.90
16064;DHT22;8136;53.172;8.256;2023-03-19T10:43:51;13.30;99.90
16064;DHT22;8136;53.172;8.256;2023-03-19T10:46:18;13.30;99.90
16064;DHT22;8136;53.172;8.256;2023-03-19T10:48:46;13.20;99.90
16064;DHT22;8136;53.172;8.256;2023-03-19T10:51:16;13.20;99.90
16064;DHT22;8136;53.172;8.256;2023-03-19T10:53:46;13.10;99.90
16064;DHT22;8136;53.172;8.256;2023-03-19T10:56:18;13.10;99.90
16064;DHT22;8136;53.172;8.256;2023-03-19T10:58:58;13.00;99.90
16064;DHT22;8136;53.172;8.256;2023-03-19T11:01:27;13.00;99.90
16064;DHT22;8136;53.172;8.256;2023-03-19T11:03:58;13.00;99.90
16064;DHT22;8136;53.172;8.256;2023-03-19T11:06:30;13.00;99.90
16064;DHT22;8136;53.172;8.256;2023-03-19T11:08:59;13.00;99.90
16064;DHT22;8136;53.172;8.256;2023-03-19T11:11:32;13.00;99.90
16064;DHT22;8136;53.172;8.256;2023-03-19T11:14:06;13.10;99.90
16064;DHT22;8136;53.172;8.256;2023-03-19T11:16:49;13.10;99.90
16064;DHT22;8136;53.172;8.256;2023-03-19T11:19:19;13.10;99.90
16064;DHT22;8136;53.172;8.256;2023-03-19T11:21:59;13.20;99.90
16064;DHT22;8136;53.172;8.256;2023-03-19T11:24:27;13.20;99.90
16064;DHT22;8136;53.172;8.256;2023-03-19T11:26:56;13.20;99.90
16064;DHT22;8136;53.172;8.256;2023-03-19T11:29:25;13.40;99.90
16064;DHT22;8136;53.172;8.256;2023-03-19T11:31:59;13.50;99.90
16064;DHT22;8136;53.172;8.256;2023-03-19T11:34:35;13.40;99.90
16064;DHT22;8136;53.172;8.256;2023-03-19T11:37:12;13.40;99.90
16064;DHT22;8136;53.172;8.256;2023-03-19T11:39:49;13.50;99.90
16064;DHT22;8136;53.172;8.256;2023-03-19T11:42:42;13.50;99.90
16064;DHT22;8136;53.172;8.256;2023-03-19T11:45:18;13.50;99.90
16064;DHT22;8136;53.172;8.256;2023-03-19T11:47:53;13.50;99.90
16064;DHT22;8136;53.172;8.256;2023-03-19T11:50:25;13.60;99.90
16064;DHT22;8136;53.172;8.256;2023-03-19T11:53:07;13.70;99.90
16064;DHT22;8136;53.172;8.256;2023-03-19T11:55:39;13.70;99.90
16064;DHT22;8136;53.172;8.256;2023-03-19T12:01:19;13.90;99.90
16064;DHT22;8136;53.172;8.256;2023-03-19T12:04:15;14.00;99.90
16064;DHT22;8136;53.172;8.256;2023-03-19T12:06:50;14.20;99.90
16064;DHT22;8136;53.172;8.256;2023-03-19T12:09:28;14.40;99.90
16064;DHT22;8136;53.172;8.256;2023-03-19T12:11:59;14.50;99.90
16064;DHT22;8136;53.172;8.256;2023-03-19T12:14:40;14.40;99.90
16064;DHT22;8136;53.172;8.256;2023-03-19T12:17:22;14.40;99.90
16064;DHT22;8136;53.172;8.256;2023-03-19T12:20:04;14.40;99.90
16064;DHT22;8136;53.172;8.256;2023-03-19T12:22:44;14.50;99.90
16064;DHT22;8136;53.172;8.256;2023-03-19T12:25:29;14.50;99.90
16064;DHT22;8136;53.172;8.256;2023-03-19T12:28:04;14.60;99.90
16064;DHT22;8136;53.172;8.256;2023-03-19T12:30:38;14.60;99.90
16064;DHT22;8136;53.172;8.256;2023-03-19T12:33:13;14.60;99.90
16064;DHT22;8136;53.172;8.256;2023-03-19T12:35:45;14.60;99.90
16064;DHT22;8136;53.172;8.256;2023-03-19T12:38:19;14.60;99.90
16064;DHT22;8136;53.172;8.256;2023-03-19T12:40:52;14.70;99.90
16064;DHT22;8136;53.172;8.256;2023-03-19T12:43:23;14.90;99.90
16064;DHT22;8136;53.172;8.256;2023-03-19T12:45:55;15.20;99.90
16064;DHT22;8136;53.172;8.256;2023-03-19T12:48:26;15.50;99.90
16064;DHT22;8136;53.172;8.256;2023-03-19T12:50:57;15.60;99.90
16064;DHT22;8136;53.172;8.256;2023-03-19T12:53:32;15.70;99.90
16064;DHT22;8136;53.172;8.256;2023-03-19T12:56:07;15.80;99.90
16064;DHT22;8136;53.172;8.256;2023-03-19T12:58:41;15.90;99.90
16064;DHT22;8136;53.172;8.256;2023-03-19T13:01:15;16.00;99.90
16064;DHT22;8136;53.172;8.256;2023-03-19T13:03:49;15.90;99.90
16064;DHT22;8136;53.172;8.256;2023-03-19T13:06:22;15.90;99.90
16064;DHT22;8136;53.172;8.256;2023-03-19T13:08:55;15.90;99.90
16064;DHT22;8136;53.172;8.256;2023-03-19T13:11:34;15.90;99.90
16064;DHT22;8136;53.172;8.256;2023-03-19T13:14:07;16.00;99.90
16064;DHT22;8136;53.172;8.256;2023-03-19T13:16:41;16.00;99.90
16064;DHT22;8136;53.172;8.256;2023-03-19T13:19:17;15.90;99.90
16064;DHT22;8136;53.172;8.256;2023-03-19T13:21:46;15.80;99.90
16064;DHT22;8136;53.172;8.256;2023-03-19T13:24:19;15.70;99.90
16064;DHT22;8136;53.172;8.256;2023-03-19T13:26:49;15.60;99.90
16064;DHT22;8136;53.172;8.256;2023-03-19T13:29:19;15.60;99.90
16064;DHT22;8136;53.172;8.256;2023-03-19T13:31:47;15.80;99.90
16064;DHT22;8136;53.172;8.256;2023-03-19T13:34:25;16.20;99.90
16064;DHT22;8136;53.172;8.256;2023-03-19T13:36:58;16.60;99.90
16064;DHT22;8136;53.172;8.256;2023-03-19T13:39:28;16.80;99.90
16064;DHT22;8136;53.172;8.256;2023-03-19T13:42:34;17.10;99.90
16064;DHT22;8136;53.172;8.256;2023-03-19T13:45:03;17.50;99.90
16064;DHT22;8136;53.172;8.256;2023-03-19T13:47:50;17.60;99.90
16064;DHT22;8136;53.172;8.256;2023-03-19T13:50:27;17.40;99.90
16064;DHT22;8136;53.172;8.256;2023-03-19T13:53:18;17.40;99.90
16064;DHT22;8136;53.172;8.256;2023-03-19T13:55:51;17.70;99.90
16064;DHT22;8136;53.172;8.256;2023-03-19T13:58:23;17.20;99.90
16064;DHT22;8136;53.172;8.256;2023-03-19T14:01:35;16.70;99.90
16064;DHT22;8136;53.172;8.256;2023-03-19T14:04:03;16.20;99.90
16064;DHT22;8136;53.172;8.256;2023-03-19T14:06:34;15.90;99.90
16064;DHT22;8136;53.172;8.256;2023-03-19T14:09:02;15.80;99.90
16064;DHT22;8136;53.172;8.256;2023-03-19T14:11:31;15.80;99.90
16064;DHT22;8136;53.172;8.256;2023-03-19T14:14:02;15.70;99.90
16064;DHT22;8136;53.172;8.256;2023-03-19T14:16:32;16.20;99.90
16064;DHT22;8136;53.172;8.256;2023-03-19T14:19:00;17.00;99.90
16064;DHT22;8136;53.172;8.256;2023-03-19T14:21:39;17.60;99.90
16064;DHT22;8136;53.172;8.256;2023-03-19T14:24:27;18.40;99.90
16064;DHT22;8136;53.172;8.256;2023-03-19T14:26:56;19.20;99.90
16064;DHT22;8136;53.172;8.256;2023-03-19T14:29:27;19.70;99.90
16064;DHT22;8136;53.172;8.256;2023-03-19T14:31:58;20.10;99.90
16064;DHT22;8136;53.172;8.256;2023-03-19T14:34:31;20.60;99.90
16064;DHT22;8136;53.172;8.256;2023-03-19T14:37:01;21.00;99.90
16064;DHT22;8136;53.172;8.256;2023-03-19T14:39:30;21.60;99.90
16064;DHT22;8136;53.172;8.256;2023-03-19T14:42:02;21.90;99.90
16064;DHT22;8136;53.172;8.256;2023-03-19T14:47:56;22.00;99.90
16064;DHT22;8136;53.172;8.256;2023-03-19T14:53:40;21.10;99.90
16064;DHT22;8136;53.172;8.256;2023-03-19T14:56:12;20.50;99.90
16064;DHT22;8136;53.172;8.256;2023-03-19T14:58:47;20.40;99.90
16064;DHT22;8136;53.172;8.256;2023-03-19T15:01:17;20.80;99.90
16064;DHT22;8136;53.172;8.256;2023-03-19T15:03:44;21.50;99.90
16064;DHT22;8136;53.172;8.256;2023-03-19T15:06:12;22.10;99.90
16064;DHT22;8136;53.172;8.256;2023-03-19T15:08:40;22.60;99.90
16064;DHT22;8136;53.172;8.256;2023-03-19T15:11:27;22.60;99.90
16064;DHT22;8136;53.172;8.256;2023-03-19T15:14:11;21.90;99.90
16064;DHT22;8136;53.172;8.256;2023-03-19T15:16:47;21.30;99.90
16064;DHT22;8136;53.172;8.256;2023-03-19T15:19:25;20.40;99.90
16064;DHT22;8136;53.172;8.256;2023-03-19T15:22:03;19.60;99.90
16064;DHT22;8136;53.172;8.256;2023-03-19T15:24:30;19.00;99.90
16064;DHT22;8136;53.172;8.256;2023-03-19T15:26:57;18.70;99.90
16064;DHT22;8136;53.172;8.256;2023-03-19T15:29:31;19.00;99.90
16064;DHT22;8136;53.172;8.256;2023-03-19T15:31:59;20.30;99.90
16064;DHT22;8136;53.172;8.256;2023-03-19T15:34:27;21.30;99.90
16064;DHT22;8136;53.172;8.256;2023-03-19T15:36:56;21.00;99.90
16064;DHT22;8136;53.172;8.256;2023-03-19T15:39:28;20.50;99.90
16064;DHT22;8136;53.172;8.256;2023-03-19T15:41:55;19.60;99.90
16064;DHT22;8136;53.172;8.256;2023-03-19T15:44:25;19.00;99.90
16064;DHT22;8136;53.172;8.256;2023-03-19T15:46:55;18.60;99.90
16064;DHT22;8136;53.172;8.256;2023-03-19T15:49:26;18.50;99.90
16064;DHT22;8136;53.172;8.256;2023-03-19T15:51:58;19.60;99.90
16064;DHT22;8136;53.172;8.256;2023-03-19T15:54:26;20.80;99.90
16064;DHT22;8136;53.172;8.256;2023-03-19T15:56:53;22.00;99.90
16064;DHT22;8136;53.172;8.256;2023-03-19T15:59:23;22.60;99.90
16064;DHT22;8136;53.172;8.256;2023-03-19T16:01:56;22.90;99.90
16064;DHT22;8136;53.172;8.256;2023-03-19T16:04:26;22.40;99.50
16064;DHT22;8136;53.172;8.256;2023-03-19T16:06:58;21.20;99.90
16064;DHT22;8136;53.172;8.256;2023-03-19T16:09:30;20.40;99.90
16064;DHT22;8136;53.172;8.256;2023-03-19T16:11:59;19.50;99.90